Vaggasvarre — LIIJ — position and weather

sailwx.info

Track history (hours):
 
Tides and Currents Weather Stations Pressure Air Temp Water Temp Dewpoint Dewpoint Depression Visibility Wind Speed Wind Dir Waves Ship Positions

Vaggasvarre

Last reported at 2017-Nov-30 12:26 UTC. Time now 2017-Dec-11 05:41 UTC.
Position N 69°35' E 020°14'.
Warning: this ship's position is 10 days out of date.

Length 65 m; draft 3.2 m.

Type: Passenger vessel. MMSI: 257059800.

Date/timePositionNaut miles runAvg speedWind from/ knotsBaromVisibWave heightAir tempDewpointWater temp
2017-Nov-30 12:26N 69°35' E 020°14'4 8.9
2017-Nov-30 12:00N 69°37' E 020°22'610.4
2017-Nov-30 11:27N 69°43' E 020°24'510.2
2017-Nov-30 11:00N 69°47' E 020°24'510.5
2017-Nov-30 10:30N 69°53' E 020°25'510.4
2017-Nov-30 10:00N 69°58' E 020°21'4 8.7
2017-Nov-30 09:30N 69°58' E 020°09'611.1
2017-Nov-30 09:00N 69°54' E 019°56'611.2
2017-Nov-30 08:30N 69°51' E 019°44'611.0
2017-Nov-30 08:00N 69°49' E 019°29'611.3
2017-Nov-30 07:30N 69°47' E 019°13'5 9.9
2017-Nov-30 07:00N 69°43' E 019°03'510.4
2017-Nov-30 06:30N 69°38' E 018°58'611.1
2017-Nov-30 06:00N 69°34' E 018°48'612.1
2017-Nov-30 05:30N 69°32' E 018°32'611.2
2017-Nov-30 05:00N 69°30' E 018°17'5 9.8
2017-Nov-30 04:30N 69°26' E 018°07'510.6
2017-Nov-30 04:00N 69°21' E 018°05'510.0
2017-Nov-30 03:30N 69°17' E 017°58'510.2
2017-Nov-30 03:00N 69°12' E 018°01'510.1
2017-Nov-30 02:30N 69°09' E 017°50'510.5
2017-Nov-30 02:00N 69°07' E 017°36'510.4
2017-Nov-30 01:30N 69°05' E 017°23'510.7
2017-Nov-30 01:00N 69°00' E 017°15'510.8
2017-Nov-30 00:30N 68°56' E 017°04'510.8
2017-Nov-30 00:00N 68°53' E 016°53'610.8
2017-Nov-29 23:30N 68°49' E 016°42'3 6.0
2017-Nov-29 23:00N 68°47' E 016°36'1 2.8
2017-Nov-29 22:30N 68°48' E 016°34'0 0.0
2017-Nov-29 22:00N 68°48' E 016°34'1 1.6
2017-Nov-29 21:30N 68°48' E 016°33'0 0.0
2017-Nov-29 21:00N 68°48' E 016°33'0 0.0
2017-Nov-29 20:30N 68°48' E 016°33'0 0.0
2017-Nov-29 20:00N 68°48' E 016°33'0 0.0
2017-Nov-29 19:30N 68°48' E 016°33'0 0.0
2017-Nov-29 19:00N 68°48' E 016°33'0 0.0
2017-Nov-29 18:30N 68°48' E 016°33'0 0.0
2017-Nov-29 18:00N 68°48' E 016°33'0 0.0
2017-Nov-29 17:30N 68°48' E 016°33'0 0.0
2017-Nov-29 17:00N 68°48' E 016°33'0 0.0
2017-Nov-29 16:29N 68°48' E 016°33'0 0.0
2017-Nov-29 16:00N 68°48' E 016°33'0 0.0
2017-Nov-29 15:30N 68°48' E 016°33'0 0.0
2017-Nov-29 15:00N 68°48' E 016°33'0 0.0
2017-Nov-29 14:29N 68°48' E 016°33'0 0.0
2017-Nov-29 14:00N 68°48' E 016°33'0 0.0
2017-Nov-29 13:30N 68°48' E 016°33'0 0.0
2017-Nov-29 13:00N 68°48' E 016°33'0 0.0
2017-Nov-29 12:30N 68°48' E 016°33'0 0.0
2017-Nov-29 12:00N 68°48' E 016°33'0 0.0
2017-Nov-29 11:30N 68°48' E 016°33'0 0.0
2017-Nov-29 11:00N 68°48' E 016°33'0 0.0
2017-Nov-29 10:30N 68°48' E 016°33'0 0.0
2017-Nov-29 10:00N 68°48' E 016°33'0 0.0
2017-Nov-29 09:30N 68°48' E 016°33'0 0.0
2017-Nov-29 09:00N 68°48' E 016°33'0 0.0
2017-Nov-29 08:29N 68°48' E 016°33'0 0.0
2017-Nov-29 08:00N 68°48' E 016°33'0 0.0
2017-Nov-29 07:30N 68°48' E 016°33'0 0.0
2017-Nov-29 07:00N 68°48' E 016°33'0 0.0
2017-Nov-29 06:30N 68°48' E 016°33'0 0.0
2017-Nov-29 06:00N 68°48' E 016°33'0 0.0
2017-Nov-29 05:30N 68°48' E 016°33'0 0.0
2017-Nov-29 05:00N 68°48' E 016°33'0 0.0
2017-Nov-29 04:30N 68°48' E 016°33'0 0.0
2017-Nov-29 04:00N 68°48' E 016°33'0 0.0
2017-Nov-29 03:30N 68°48' E 016°33'0 0.0
2017-Nov-29 03:00N 68°48' E 016°33'0 0.0
2017-Nov-29 02:30N 68°48' E 016°33'0 0.0
2017-Nov-29 02:00N 68°48' E 016°33'0 0.0
2017-Nov-29 01:30N 68°48' E 016°33'0 0.0
2017-Nov-29 01:00N 68°48' E 016°33'0 0.0
2017-Nov-29 00:30N 68°48' E 016°33'0 0.0
2017-Nov-29 00:00N 68°48' E 016°33'0 0.0
2017-Nov-28 23:29N 68°48' E 016°33'0 0.0
2017-Nov-28 22:59N 68°48' E 016°33'0 0.0
2017-Nov-28 22:30N 68°48' E 016°33'0 0.0
2017-Nov-28 22:00N 68°48' E 016°33'0 0.0
2017-Nov-28 21:30N 68°48' E 016°33'0 0.0
2017-Nov-28 21:00N 68°48' E 016°33'0 0.0
2017-Nov-28 20:29N 68°48' E 016°33'0 0.0
2017-Nov-28 20:00N 68°48' E 016°33'0 0.0
2017-Nov-28 19:30N 68°48' E 016°33'0 0.0
2017-Nov-28 19:00N 68°48' E 016°33'0 0.0
2017-Nov-28 18:30N 68°48' E 016°33'0 0.0
2017-Nov-28 18:00N 68°48' E 016°33'0 0.0
2017-Nov-28 17:29N 68°48' E 016°33'0 0.0
2017-Nov-28 17:00N 68°48' E 016°33'0 0.0
2017-Nov-28 16:29N 68°48' E 016°33'0 0.0
2017-Nov-28 16:00N 68°48' E 016°33'0 0.0
2017-Nov-28 15:00N 68°48' E 016°33'0 0.0
2017-Nov-28 14:29N 68°48' E 016°33'0 0.0
2017-Nov-28 14:00N 68°48' E 016°33'0 0.0
2017-Nov-28 13:30N 68°48' E 016°33'0 0.0
2017-Nov-28 13:00N 68°48' E 016°33'0 0.0
2017-Nov-28 12:30N 68°48' E 016°33'0 0.0
2017-Nov-28 11:59N 68°48' E 016°33'0 0.0
2017-Nov-28 11:29N 68°48' E 016°33'0 0.0
2017-Nov-28 11:00N 68°48' E 016°33'0 0.0
2017-Nov-28 10:30N 68°48' E 016°33'0 0.0
2017-Nov-28 10:00N 68°48' E 016°33'0 0.0
2017-Nov-28 09:30N 68°48' E 016°33'0 0.0
2017-Nov-28 08:59N 68°48' E 016°33'0 0.0
2017-Nov-28 08:30N 68°48' E 016°33'0 0.0
2017-Nov-28 08:00N 68°48' E 016°33'0 0.0
2017-Nov-28 07:30N 68°48' E 016°33'0 0.0
2017-Nov-28 07:00N 68°48' E 016°33'0 0.0
2017-Nov-28 06:30N 68°48' E 016°33'0 0.0
2017-Nov-28 06:00N 68°48' E 016°33'0 0.0
2017-Nov-28 05:30N 68°48' E 016°33'0 0.0
2017-Nov-28 04:30N 68°48' E 016°33'0 0.0
2017-Nov-28 04:00N 68°48' E 016°33'0 0.0
2017-Nov-28 03:30N 68°48' E 016°33'0 0.0
2017-Nov-28 03:00N 68°48' E 016°33'0 0.0
2017-Nov-28 02:30N 68°48' E 016°33'0 0.0
2017-Nov-28 02:00N 68°48' E 016°33'0 0.0
2017-Nov-28 01:30N 68°48' E 016°33'0 0.0
2017-Nov-28 01:00N 68°48' E 016°33'0 0.0
2017-Nov-28 00:30N 68°48' E 016°33'0 0.0
2017-Nov-28 00:00N 68°48' E 016°33'0 0.0
2017-Nov-27 23:30N 68°48' E 016°33'0 0.0
2017-Nov-27 23:00N 68°48' E 016°33'0 0.0
2017-Nov-27 22:30N 68°48' E 016°33'0 0.0
2017-Nov-27 21:59N 68°48' E 016°33'0 0.0
2017-Nov-27 21:30N 68°48' E 016°33'0 0.0
2017-Nov-27 20:59N 68°48' E 016°33'0 0.0
2017-Nov-27 20:30N 68°48' E 016°33'0 0.0
2017-Nov-27 20:00N 68°48' E 016°33'0 0.0
2017-Nov-27 19:30N 68°48' E 016°33'0 0.0
2017-Nov-27 18:59N 68°48' E 016°33'0 0.0
2017-Nov-27 18:30N 68°48' E 016°33'0 0.0
2017-Nov-27 18:00N 68°48' E 016°33'0 0.0
2017-Nov-27 17:30N 68°48' E 016°33'0 0.0
2017-Nov-27 17:00N 68°48' E 016°33'0 0.0
2017-Nov-27 16:30N 68°48' E 016°33'0 0.0
2017-Nov-27 16:00N 68°48' E 016°33'0 0.0
2017-Nov-27 15:30N 68°48' E 016°33'0 0.0
2017-Nov-27 15:00N 68°48' E 016°33'0 0.0
2017-Nov-27 14:30N 68°48' E 016°33'0 0.0
2017-Nov-27 14:00N 68°48' E 016°33'0 0.0
2017-Nov-27 13:30N 68°48' E 016°33'0 0.0
2017-Nov-27 13:00N 68°48' E 016°33'0 0.0
2017-Nov-27 12:30N 68°48' E 016°33'0 0.0
2017-Nov-27 12:00N 68°48' E 016°33'2 4.6
2017-Nov-27 11:30N 68°50' E 016°36'2 5.0
2017-Nov-27 11:00N 68°51' E 016°29'2 3.7
2017-Nov-27 10:30N 68°53' E 016°30'0 0.0
2017-Nov-27 10:00N 68°53' E 016°30'0 0.0
2017-Nov-27 09:30N 68°53' E 016°30'1 2.8
2017-Nov-27 09:00N 68°52' E 016°30'0 0.9
2017-Nov-27 08:30N 68°51' E 016°30'0 0.1
2017-Nov-27 08:00N 68°51' E 016°29'0 0.3
2017-Nov-27 07:30N 68°51' E 016°30'1 2.7
2017-Nov-27 07:00N 68°52' E 016°30'0 0.4
2017-Nov-27 06:30N 68°53' E 016°30'1 2.8
2017-Nov-27 06:00N 68°51' E 016°30'0 0.5
2017-Nov-27 05:29N 68°51' E 016°29'2 3.6
2017-Nov-27 04:59N 68°53' E 016°30'0 0.0
2017-Nov-27 04:30N 68°53' E 016°30'0 0.0
2017-Nov-27 04:00N 68°53' E 016°30'0 0.0
2017-Nov-27 03:30N 68°53' E 016°30'0 0.0
2017-Nov-27 03:00N 68°53' E 016°30'0 0.0
2017-Nov-27 02:30N 68°53' E 016°30'0 0.0
2017-Nov-27 02:00N 68°53' E 016°30'0 0.0
2017-Nov-27 01:30N 68°53' E 016°30'0 0.0
2017-Nov-27 01:00N 68°53' E 016°30'0 0.0
2017-Nov-27 00:30N 68°53' E 016°30'0 0.0
2017-Nov-27 00:00N 68°53' E 016°30'0 0.0
2017-Nov-26 23:30N 68°53' E 016°30'0 0.0
2017-Nov-26 23:00N 68°53' E 016°30'0 0.0
2017-Nov-26 22:30N 68°53' E 016°30'2 3.6
2017-Nov-26 22:00N 68°51' E 016°29'2 3.6
2017-Nov-26 21:30N 68°53' E 016°30'2 3.7
2017-Nov-26 21:00N 68°51' E 016°30'2 3.7
2017-Nov-26 20:30N 68°53' E 016°30'2 3.5
2017-Nov-26 20:00N 68°51' E 016°29'2 3.7
2017-Nov-26 19:30N 68°53' E 016°30'2 3.6
2017-Nov-26 19:00N 68°51' E 016°29'2 3.7
2017-Nov-26 18:30N 68°53' E 016°30'2 3.5
2017-Nov-26 17:59N 68°51' E 016°29'2 3.7
2017-Nov-26 17:30N 68°53' E 016°30'0 0.0
2017-Nov-26 17:00N 68°53' E 016°30'0 0.0
2017-Nov-26 16:30N 68°53' E 016°30'2 3.2
2017-Nov-26 16:00N 68°51' E 016°30'2 3.2
2017-Nov-26 15:30N 68°53' E 016°30'2 3.7
2017-Nov-26 15:00N 68°51' E 016°29'2 3.6
2017-Nov-26 14:30N 68°53' E 016°30'2 3.5
2017-Nov-26 13:59N 68°51' E 016°29'2 3.8
2017-Nov-26 13:30N 68°53' E 016°30'0 0.0
2017-Nov-26 13:00N 68°53' E 016°30'0 0.0
2017-Nov-26 12:30N 68°53' E 016°30'0 0.0
2017-Nov-26 12:00N 68°53' E 016°30'0 0.0
2017-Nov-26 11:30N 68°53' E 016°30'0 0.0
2017-Nov-26 11:00N 68°53' E 016°30'0 0.0
2017-Nov-26 10:30N 68°53' E 016°30'2 3.6
2017-Nov-26 10:00N 68°51' E 016°29'2 3.6
2017-Nov-26 09:30N 68°53' E 016°30'2 3.6
2017-Nov-26 09:00N 68°51' E 016°29'2 3.6
2017-Nov-26 08:30N 68°53' E 016°30'0 0.0
2017-Nov-26 08:00N 68°53' E 016°30'0 0.0
2017-Nov-26 07:30N 68°53' E 016°30'0 0.0
2017-Nov-26 07:00N 68°53' E 016°30'0 0.0
2017-Nov-26 06:30N 68°53' E 016°30'0 0.0
2017-Nov-26 06:00N 68°53' E 016°30'0 0.0
2017-Nov-26 05:29N 68°53' E 016°30'0 0.0
2017-Nov-26 05:00N 68°53' E 016°30'0 0.0
2017-Nov-26 04:30N 68°53' E 016°30'0 0.0
2017-Nov-26 04:00N 68°53' E 016°30'0 0.0
2017-Nov-26 03:30N 68°53' E 016°30'0 0.0
2017-Nov-26 03:00N 68°53' E 016°30'0 0.0
2017-Nov-26 02:30N 68°53' E 016°30'0 0.0
2017-Nov-26 02:00N 68°53' E 016°30'0 0.0
2017-Nov-26 01:30N 68°53' E 016°30'0 0.0
2017-Nov-26 01:00N 68°53' E 016°30'0 0.0
2017-Nov-26 00:30N 68°53' E 016°30'0 0.0
2017-Nov-26 00:00N 68°53' E 016°30'0 0.0
2017-Nov-25 23:29N 68°53' E 016°30'0 0.0
2017-Nov-25 23:00N 68°53' E 016°30'0 0.0
2017-Nov-25 22:29N 68°53' E 016°30'2 3.7
2017-Nov-25 22:00N 68°51' E 016°30'2 3.6
2017-Nov-25 21:30N 68°53' E 016°30'2 3.7
2017-Nov-25 21:00N 68°51' E 016°30'2 3.6
2017-Nov-25 20:30N 68°53' E 016°30'2 3.6
2017-Nov-25 20:00N 68°51' E 016°29'2 3.6
2017-Nov-25 19:30N 68°53' E 016°30'2 3.5
2017-Nov-25 18:59N 68°51' E 016°29'2 3.7
2017-Nov-25 18:30N 68°53' E 016°30'2 3.8
2017-Nov-25 18:00N 68°51' E 016°30'2 3.6
2017-Nov-25 17:30N 68°53' E 016°30'0 0.1
2017-Nov-25 17:00N 68°53' E 016°30'0 0.0
2017-Nov-25 16:30N 68°53' E 016°30'2 3.6
2017-Nov-25 16:00N 68°51' E 016°29'2 3.6
2017-Nov-25 15:30N 68°53' E 016°30'2 3.5
2017-Nov-25 15:00N 68°51' E 016°29'2 3.7
2017-Nov-25 14:30N 68°53' E 016°30'2 3.6
2017-Nov-25 14:00N 68°51' E 016°30'2 3.5
2017-Nov-25 13:29N 68°53' E 016°30'2 3.7
2017-Nov-25 13:00N 68°51' E 016°29'0 0.0
2017-Nov-25 12:30N 68°51' E 016°29'0 0.0
2017-Nov-25 12:00N 68°51' E 016°29'0 0.0
2017-Nov-25 11:30N 68°51' E 016°29'0 0.0
2017-Nov-25 11:00N 68°51' E 016°29'0 0.8
2017-Nov-25 10:30N 68°51' E 016°30'0 0.8
2017-Nov-25 10:00N 68°51' E 016°29'2 3.7
2017-Nov-25 09:30N 68°53' E 016°30'2 3.7
2017-Nov-25 09:00N 68°51' E 016°30'2 3.6
2017-Nov-25 08:30N 68°53' E 016°30'2 3.6
2017-Nov-25 08:00N 68°51' E 016°29'2 3.7
2017-Nov-25 07:30N 68°53' E 016°30'2 3.5
2017-Nov-25 07:00N 68°51' E 016°29'2 3.7
2017-Nov-25 06:30N 68°53' E 016°30'0 0.0
2017-Nov-25 06:00N 68°53' E 016°30'0 0.0
2017-Nov-25 05:29N 68°53' E 016°30'0 0.0
2017-Nov-25 05:00N 68°53' E 016°30'0 0.0
2017-Nov-25 04:30N 68°53' E 016°30'0 0.0
2017-Nov-25 04:00N 68°53' E 016°30'0 0.0
2017-Nov-25 03:30N 68°53' E 016°30'0 0.0
2017-Nov-25 03:00N 68°53' E 016°30'0 0.0
2017-Nov-25 02:30N 68°53' E 016°30'0 0.0
2017-Nov-25 02:00N 68°53' E 016°30'0 0.0
2017-Nov-25 01:30N 68°53' E 016°30'0 0.0
2017-Nov-25 01:00N 68°53' E 016°30'0 0.0
2017-Nov-25 00:30N 68°53' E 016°30'0 0.0
2017-Nov-24 23:59N 68°53' E 016°30'0 0.0
2017-Nov-24 23:29N 68°53' E 016°30'0 0.0
2017-Nov-24 23:00N 68°53' E 016°30'0 0.0
2017-Nov-24 22:30N 68°53' E 016°30'2 3.7
2017-Nov-24 22:00N 68°51' E 016°29'2 3.6
2017-Nov-24 21:30N 68°53' E 016°30'2 3.6
2017-Nov-24 21:00N 68°51' E 016°29'2 3.7
2017-Nov-24 20:30N 68°53' E 016°30'2 3.6
2017-Nov-24 20:00N 68°51' E 016°29'2 3.6
2017-Nov-24 19:30N 68°53' E 016°30'2 3.7
2017-Nov-24 19:00N 68°51' E 016°29'2 3.6
2017-Nov-24 18:30N 68°53' E 016°30'2 3.7
2017-Nov-24 18:00N 68°51' E 016°30'0 0.0
2017-Nov-24 17:30N 68°51' E 016°29'0 0.0
2017-Nov-24 17:00N 68°51' E 016°29'2 3.7
2017-Nov-24 16:30N 68°53' E 016°30'0 0.8
2017-Nov-24 16:00N 68°53' E 016°30'0 0.9
2017-Nov-24 15:30N 68°52' E 016°30'1 2.0
2017-Nov-24 15:00N 68°51' E 016°30'0 0.2
2017-Nov-24 14:30N 68°51' E 016°29'2 3.1
2017-Nov-24 14:00N 68°53' E 016°30'0 0.4
2017-Nov-24 13:30N 68°52' E 016°30'1 2.7
2017-Nov-24 13:00N 68°51' E 016°29'0 0.0
2017-Nov-24 12:30N 68°51' E 016°29'0 0.0
2017-Nov-24 11:59N 68°51' E 016°29'0 0.0
2017-Nov-24 11:30N 68°51' E 016°29'0 0.0
2017-Nov-24 11:00N 68°51' E 016°29'2 3.6
2017-Nov-24 10:30N 68°53' E 016°30'2 3.3
2017-Nov-24 10:00N 68°51' E 016°30'1 2.2
2017-Nov-24 09:30N 68°52' E 016°30'1 1.0
2017-Nov-24 09:00N 68°53' E 016°30'0 0.1
2017-Nov-24 08:31N 68°53' E 016°30'1 2.5
2017-Nov-24 08:00N 68°52' E 016°30'1 1.2
2017-Nov-24 07:30N 68°51' E 016°29'1 1.7
2017-Nov-24 07:00N 68°52' E 016°30'1 1.9
2017-Nov-24 06:30N 68°53' E 016°30'0 0.0
2017-Nov-24 06:00N 68°53' E 016°30'2 3.7
2017-Nov-24 05:30N 68°51' E 016°29'0 0.0
2017-Nov-24 05:00N 68°51' E 016°29'0 0.0
2017-Nov-24 04:30N 68°51' E 016°29'0 0.0
2017-Nov-24 03:59N 68°51' E 016°29'0 0.0
2017-Nov-24 03:29N 68°51' E 016°29'0 0.0
2017-Nov-24 03:00N 68°51' E 016°29'0 0.0
2017-Nov-24 02:30N 68°51' E 016°29'0 0.0
2017-Nov-24 02:00N 68°51' E 016°29'0 0.0
2017-Nov-24 01:30N 68°51' E 016°29'0 0.0
2017-Nov-24 00:59N 68°51' E 016°29'0 0.0
2017-Nov-24 00:29N 68°51' E 016°29'0 0.0
2017-Nov-24 00:00N 68°51' E 016°29'0 0.0
2017-Nov-23 23:30N 68°51' E 016°29'0 0.0
2017-Nov-23 23:00N 68°51' E 016°29'0 0.0
2017-Nov-23 22:30N 68°51' E 016°29'0 0.0
2017-Nov-23 22:00N 68°51' E 016°29'0 0.0
2017-Nov-23 21:30N 68°51' E 016°29'0 0.0
2017-Nov-23 21:00N 68°51' E 016°29'0 0.0
2017-Nov-23 20:30N 68°51' E 016°29'0 0.0
2017-Nov-23 20:00N 68°51' E 016°29'0 0.0
2017-Nov-23 19:30N 68°51' E 016°29'0 0.0
2017-Nov-23 19:00N 68°51' E 016°29'0 0.0
2017-Nov-23 18:30N 68°51' E 016°29'0 0.0
2017-Nov-23 17:59N 68°51' E 016°29'0 0.0
2017-Nov-23 17:30N 68°51' E 016°29'0 0.0
2017-Nov-23 17:00N 68°51' E 016°29'0 0.0
2017-Nov-23 16:30N 68°51' E 016°29'0 0.0
2017-Nov-23 16:00N 68°51' E 016°29'0 0.0
2017-Nov-23 15:30N 68°51' E 016°29'0 0.0
2017-Nov-23 15:00N 68°51' E 016°29'0 0.0
2017-Nov-23 14:30N 68°51' E 016°29'0 0.0
2017-Nov-23 14:00N 68°51' E 016°29'0 0.6
2017-Nov-23 13:30N 68°51' E 016°30'0 0.6
2017-Nov-23 13:00N 68°51' E 016°29'0 0.0
2017-Nov-23 12:30N 68°51' E 016°29'0 0.0
2017-Nov-23 12:00N 68°51' E 016°29'0 0.0
2017-Nov-23 11:30N 68°51' E 016°29'0 0.8
2017-Nov-23 11:01N 68°51' E 016°31'3 5.9
2017-Nov-23 10:30N 68°48' E 016°34'1 1.5
2017-Nov-23 10:00N 68°48' E 016°33'0 0.0
2017-Nov-23 09:30N 68°48' E 016°33'0 0.0
2017-Nov-23 09:00N 68°48' E 016°33'0 0.0
2017-Nov-23 08:29N 68°48' E 016°33'0 0.0
2017-Nov-23 08:00N 68°48' E 016°33'0 0.0
2017-Nov-23 07:30N 68°48' E 016°33'0 0.0
2017-Nov-23 06:59N 68°48' E 016°33'0 0.0
2017-Nov-23 06:30N 68°48' E 016°33'0 0.0
2017-Nov-23 06:00N 68°48' E 016°33'0 0.0
2017-Nov-23 05:30N 68°48' E 016°33'0 0.0
2017-Nov-23 05:00N 68°48' E 016°33'0 0.0
2017-Nov-23 04:30N 68°48' E 016°33'0 0.0
2017-Nov-23 04:00N 68°48' E 016°33'0 0.0
2017-Nov-23 03:30N 68°48' E 016°33'0 0.0
2017-Nov-23 03:00N 68°48' E 016°33'0 0.0
2017-Nov-23 02:30N 68°48' E 016°33'0 0.0
2017-Nov-23 02:00N 68°48' E 016°33'1 1.6
2017-Nov-23 01:30N 68°49' E 016°33'4 8.6
2017-Nov-23 01:00N 68°51' E 016°43'510.6
2017-Nov-23 00:30N 68°54' E 016°55'510.6
2017-Nov-23 00:00N 68°57' E 017°06'510.5
2017-Nov-22 23:30N 69°01' E 017°17'510.6
2017-Nov-22 23:00N 69°05' E 017°25'510.6
2017-Nov-22 22:30N 69°08' E 017°38'510.7
2017-Nov-22 22:00N 69°10' E 017°52'4 7.7
2017-Nov-22 21:30N 69°13' E 017°59'5 9.9
2017-Nov-22 21:00N 69°18' E 017°58'5 9.7
2017-Nov-22 20:30N 69°22' E 018°06'5 9.9
2017-Nov-22 20:00N 69°27' E 018°07'5 9.5
2017-Nov-22 19:30N 69°30' E 018°16'  
Track history (hours):
 
Tides and Currents Weather Stations Pressure Air Temp Water Temp Dewpoint Dewpoint Depression Visibility Wind Speed Wind Dir Waves Ship Positions

Vaggasvarre

Last reported at 2017-Nov-30 12:26 UTC. Time now 2017-Dec-11 05:41 UTC.
Position N 69°35' E 020°14'.
Warning: this ship's position is 10 days out of date.

Length 65 m; draft 3.2 m.

Type: Passenger vessel. MMSI: 257059800.

Date/timePositionNaut miles runAvg speedWind from/ knotsBaromVisibWave heightAir tempDewpointWater temp
2017-Nov-30 12:26N 69°35' E 020°14'4 8.9
2017-Nov-30 12:00N 69°37' E 020°22'610.4
2017-Nov-30 11:27N 69°43' E 020°24'510.2
2017-Nov-30 11:00N 69°47' E 020°24'510.5
2017-Nov-30 10:30N 69°53' E 020°25'510.4
2017-Nov-30 10:00N 69°58' E 020°21'4 8.7
2017-Nov-30 09:30N 69°58' E 020°09'611.1
2017-Nov-30 09:00N 69°54' E 019°56'611.2
2017-Nov-30 08:30N 69°51' E 019°44'611.0
2017-Nov-30 08:00N 69°49' E 019°29'611.3
2017-Nov-30 07:30N 69°47' E 019°13'5 9.9
2017-Nov-30 07:00N 69°43' E 019°03'510.4
2017-Nov-30 06:30N 69°38' E 018°58'611.1
2017-Nov-30 06:00N 69°34' E 018°48'612.1
2017-Nov-30 05:30N 69°32' E 018°32'611.2
2017-Nov-30 05:00N 69°30' E 018°17'5 9.8
2017-Nov-30 04:30N 69°26' E 018°07'510.6
2017-Nov-30 04:00N 69°21' E 018°05'510.0
2017-Nov-30 03:30N 69°17' E 017°58'510.2
2017-Nov-30 03:00N 69°12' E 018°01'510.1
2017-Nov-30 02:30N 69°09' E 017°50'510.5
2017-Nov-30 02:00N 69°07' E 017°36'510.4
2017-Nov-30 01:30N 69°05' E 017°23'510.7
2017-Nov-30 01:00N 69°00' E 017°15'510.8
2017-Nov-30 00:30N 68°56' E 017°04'510.8
2017-Nov-30 00:00N 68°53' E 016°53'610.8
2017-Nov-29 23:30N 68°49' E 016°42'3 6.0
2017-Nov-29 23:00N 68°47' E 016°36'1 2.8
2017-Nov-29 22:30N 68°48' E 016°34'0 0.0
2017-Nov-29 22:00N 68°48' E 016°34'1 1.6
2017-Nov-29 21:30N 68°48' E 016°33'0 0.0
2017-Nov-29 21:00N 68°48' E 016°33'0 0.0
2017-Nov-29 20:30N 68°48' E 016°33'0 0.0
2017-Nov-29 20:00N 68°48' E 016°33'0 0.0
2017-Nov-29 19:30N 68°48' E 016°33'0 0.0
2017-Nov-29 19:00N 68°48' E 016°33'0 0.0
2017-Nov-29 18:30N 68°48' E 016°33'0 0.0
2017-Nov-29 18:00N 68°48' E 016°33'0 0.0
2017-Nov-29 17:30N 68°48' E 016°33'0 0.0
2017-Nov-29 17:00N 68°48' E 016°33'0 0.0
2017-Nov-29 16:29N 68°48' E 016°33'0 0.0
2017-Nov-29 16:00N 68°48' E 016°33'0 0.0
2017-Nov-29 15:30N 68°48' E 016°33'0 0.0
2017-Nov-29 15:00N 68°48' E 016°33'0 0.0
2017-Nov-29 14:29N 68°48' E 016°33'0 0.0
2017-Nov-29 14:00N 68°48' E 016°33'0 0.0
2017-Nov-29 13:30N 68°48' E 016°33'0 0.0
2017-Nov-29 13:00N 68°48' E 016°33'0 0.0
2017-Nov-29 12:30N 68°48' E 016°33'0 0.0
2017-Nov-29 12:00N 68°48' E 016°33'0 0.0
2017-Nov-29 11:30N 68°48' E 016°33'0 0.0
2017-Nov-29 11:00N 68°48' E 016°33'0 0.0
2017-Nov-29 10:30N 68°48' E 016°33'0 0.0
2017-Nov-29 10:00N 68°48' E 016°33'0 0.0
2017-Nov-29 09:30N 68°48' E 016°33'0 0.0
2017-Nov-29 09:00N 68°48' E 016°33'0 0.0
2017-Nov-29 08:29N 68°48' E 016°33'0 0.0
2017-Nov-29 08:00N 68°48' E 016°33'0 0.0
2017-Nov-29 07:30N 68°48' E 016°33'0 0.0
2017-Nov-29 07:00N 68°48' E 016°33'0 0.0
2017-Nov-29 06:30N 68°48' E 016°33'0 0.0
2017-Nov-29 06:00N 68°48' E 016°33'0 0.0
2017-Nov-29 05:30N 68°48' E 016°33'0 0.0
2017-Nov-29 05:00N 68°48' E 016°33'0 0.0
2017-Nov-29 04:30N 68°48' E 016°33'0 0.0
2017-Nov-29 04:00N 68°48' E 016°33'0 0.0
2017-Nov-29 03:30N 68°48' E 016°33'0 0.0
2017-Nov-29 03:00N 68°48' E 016°33'0 0.0
2017-Nov-29 02:30N 68°48' E 016°33'0 0.0
2017-Nov-29 02:00N 68°48' E 016°33'0 0.0
2017-Nov-29 01:30N 68°48' E 016°33'0 0.0
2017-Nov-29 01:00N 68°48' E 016°33'0 0.0
2017-Nov-29 00:30N 68°48' E 016°33'0 0.0
2017-Nov-29 00:00N 68°48' E 016°33'0 0.0
2017-Nov-28 23:29N 68°48' E 016°33'0 0.0
2017-Nov-28 22:59N 68°48' E 016°33'0 0.0
2017-Nov-28 22:30N 68°48' E 016°33'0 0.0
2017-Nov-28 22:00N 68°48' E 016°33'0 0.0
2017-Nov-28 21:30N 68°48' E 016°33'0 0.0
2017-Nov-28 21:00N 68°48' E 016°33'0 0.0
2017-Nov-28 20:29N 68°48' E 016°33'0 0.0
2017-Nov-28 20:00N 68°48' E 016°33'0 0.0
2017-Nov-28 19:30N 68°48' E 016°33'0 0.0
2017-Nov-28 19:00N 68°48' E 016°33'0 0.0
2017-Nov-28 18:30N 68°48' E 016°33'0 0.0
2017-Nov-28 18:00N 68°48' E 016°33'0 0.0
2017-Nov-28 17:29N 68°48' E 016°33'0 0.0
2017-Nov-28 17:00N 68°48' E 016°33'0 0.0
2017-Nov-28 16:29N 68°48' E 016°33'0 0.0
2017-Nov-28 16:00N 68°48' E 016°33'0 0.0
2017-Nov-28 15:00N 68°48' E 016°33'0 0.0
2017-Nov-28 14:29N 68°48' E 016°33'0 0.0
2017-Nov-28 14:00N 68°48' E 016°33'0 0.0
2017-Nov-28 13:30N 68°48' E 016°33'0 0.0
2017-Nov-28 13:00N 68°48' E 016°33'0 0.0
2017-Nov-28 12:30N 68°48' E 016°33'0 0.0
2017-Nov-28 11:59N 68°48' E 016°33'0 0.0
2017-Nov-28 11:29N 68°48' E 016°33'0 0.0
2017-Nov-28 11:00N 68°48' E 016°33'0 0.0
2017-Nov-28 10:30N 68°48' E 016°33'0 0.0
2017-Nov-28 10:00N 68°48' E 016°33'0 0.0
2017-Nov-28 09:30N 68°48' E 016°33'0 0.0
2017-Nov-28 08:59N 68°48' E 016°33'0 0.0
2017-Nov-28 08:30N 68°48' E 016°33'0 0.0
2017-Nov-28 08:00N 68°48' E 016°33'0 0.0
2017-Nov-28 07:30N 68°48' E 016°33'0 0.0
2017-Nov-28 07:00N 68°48' E 016°33'0 0.0
2017-Nov-28 06:30N 68°48' E 016°33'0 0.0
2017-Nov-28 06:00N 68°48' E 016°33'0 0.0
2017-Nov-28 05:30N 68°48' E 016°33'0 0.0
2017-Nov-28 04:30N 68°48' E 016°33'0 0.0
2017-Nov-28 04:00N 68°48' E 016°33'0 0.0
2017-Nov-28 03:30N 68°48' E 016°33'0 0.0
2017-Nov-28 03:00N 68°48' E 016°33'0 0.0
2017-Nov-28 02:30N 68°48' E 016°33'0 0.0
2017-Nov-28 02:00N 68°48' E 016°33'0 0.0
2017-Nov-28 01:30N 68°48' E 016°33'0 0.0
2017-Nov-28 01:00N 68°48' E 016°33'0 0.0
2017-Nov-28 00:30N 68°48' E 016°33'0 0.0
2017-Nov-28 00:00N 68°48' E 016°33'0 0.0
2017-Nov-27 23:30N 68°48' E 016°33'0 0.0
2017-Nov-27 23:00N 68°48' E 016°33'0 0.0
2017-Nov-27 22:30N 68°48' E 016°33'0 0.0
2017-Nov-27 21:59N 68°48' E 016°33'0 0.0
2017-Nov-27 21:30N 68°48' E 016°33'0 0.0
2017-Nov-27 20:59N 68°48' E 016°33'0 0.0
2017-Nov-27 20:30N 68°48' E 016°33'0 0.0
2017-Nov-27 20:00N 68°48' E 016°33'0 0.0
2017-Nov-27 19:30N 68°48' E 016°33'0 0.0
2017-Nov-27 18:59N 68°48' E 016°33'0 0.0
2017-Nov-27 18:30N 68°48' E 016°33'0 0.0
2017-Nov-27 18:00N 68°48' E 016°33'0 0.0
2017-Nov-27 17:30N 68°48' E 016°33'0 0.0
2017-Nov-27 17:00N 68°48' E 016°33'0 0.0
2017-Nov-27 16:30N 68°48' E 016°33'0 0.0
2017-Nov-27 16:00N 68°48' E 016°33'0 0.0
2017-Nov-27 15:30N 68°48' E 016°33'0 0.0
2017-Nov-27 15:00N 68°48' E 016°33'0 0.0
2017-Nov-27 14:30N 68°48' E 016°33'0 0.0
2017-Nov-27 14:00N 68°48' E 016°33'0 0.0
2017-Nov-27 13:30N 68°48' E 016°33'0 0.0
2017-Nov-27 13:00N 68°48' E 016°33'0 0.0
2017-Nov-27 12:30N 68°48' E 016°33'0 0.0
2017-Nov-27 12:00N 68°48' E 016°33'2 4.6
2017-Nov-27 11:30N 68°50' E 016°36'2 5.0
2017-Nov-27 11:00N 68°51' E 016°29'2 3.7
2017-Nov-27 10:30N 68°53' E 016°30'0 0.0
2017-Nov-27 10:00N 68°53' E 016°30'0 0.0
2017-Nov-27 09:30N 68°53' E 016°30'1 2.8
2017-Nov-27 09:00N 68°52' E 016°30'0 0.9
2017-Nov-27 08:30N 68°51' E 016°30'0 0.1
2017-Nov-27 08:00N 68°51' E 016°29'0 0.3
2017-Nov-27 07:30N 68°51' E 016°30'1 2.7
2017-Nov-27 07:00N 68°52' E 016°30'0 0.4
2017-Nov-27 06:30N 68°53' E 016°30'1 2.8
2017-Nov-27 06:00N 68°51' E 016°30'0 0.5
2017-Nov-27 05:29N 68°51' E 016°29'2 3.6
2017-Nov-27 04:59N 68°53' E 016°30'0 0.0
2017-Nov-27 04:30N 68°53' E 016°30'0 0.0
2017-Nov-27 04:00N 68°53' E 016°30'0 0.0
2017-Nov-27 03:30N 68°53' E 016°30'0 0.0
2017-Nov-27 03:00N 68°53' E 016°30'0 0.0
2017-Nov-27 02:30N 68°53' E 016°30'0 0.0
2017-Nov-27 02:00N 68°53' E 016°30'0 0.0
2017-Nov-27 01:30N 68°53' E 016°30'0 0.0
2017-Nov-27 01:00N 68°53' E 016°30'0 0.0
2017-Nov-27 00:30N 68°53' E 016°30'0 0.0
2017-Nov-27 00:00N 68°53' E 016°30'0 0.0
2017-Nov-26 23:30N 68°53' E 016°30'0 0.0
2017-Nov-26 23:00N 68°53' E 016°30'0 0.0
2017-Nov-26 22:30N 68°53' E 016°30'2 3.6
2017-Nov-26 22:00N 68°51' E 016°29'2 3.6
2017-Nov-26 21:30N 68°53' E 016°30'2 3.7
2017-Nov-26 21:00N 68°51' E 016°30'2 3.7
2017-Nov-26 20:30N 68°53' E 016°30'2 3.5
2017-Nov-26 20:00N 68°51' E 016°29'2 3.7
2017-Nov-26 19:30N 68°53' E 016°30'2 3.6
2017-Nov-26 19:00N 68°51' E 016°29'2 3.7
2017-Nov-26 18:30N 68°53' E 016°30'2 3.5
2017-Nov-26 17:59N 68°51' E 016°29'2 3.7
2017-Nov-26 17:30N 68°53' E 016°30'0 0.0
2017-Nov-26 17:00N 68°53' E 016°30'0 0.0
2017-Nov-26 16:30N 68°53' E 016°30'2 3.2
2017-Nov-26 16:00N 68°51' E 016°30'2 3.2
2017-Nov-26 15:30N 68°53' E 016°30'2 3.7
2017-Nov-26 15:00N 68°51' E 016°29'2 3.6
2017-Nov-26 14:30N 68°53' E 016°30'2 3.5
2017-Nov-26 13:59N 68°51' E 016°29'2 3.8
2017-Nov-26 13:30N 68°53' E 016°30'0 0.0
2017-Nov-26 13:00N 68°53' E 016°30'0 0.0
2017-Nov-26 12:30N 68°53' E 016°30'0 0.0
2017-Nov-26 12:00N 68°53' E 016°30'0 0.0
2017-Nov-26 11:30N 68°53' E 016°30'0 0.0
2017-Nov-26 11:00N 68°53' E 016°30'0 0.0
2017-Nov-26 10:30N 68°53' E 016°30'2 3.6
2017-Nov-26 10:00N 68°51' E 016°29'2 3.6
2017-Nov-26 09:30N 68°53' E 016°30'2 3.6
2017-Nov-26 09:00N 68°51' E 016°29'2 3.6
2017-Nov-26 08:30N 68°53' E 016°30'0 0.0
2017-Nov-26 08:00N 68°53' E 016°30'0 0.0
2017-Nov-26 07:30N 68°53' E 016°30'0 0.0
2017-Nov-26 07:00N 68°53' E 016°30'0 0.0
2017-Nov-26 06:30N 68°53' E 016°30'0 0.0
2017-Nov-26 06:00N 68°53' E 016°30'0 0.0
2017-Nov-26 05:29N 68°53' E 016°30'0 0.0
2017-Nov-26 05:00N 68°53' E 016°30'0 0.0
2017-Nov-26 04:30N 68°53' E 016°30'0 0.0
2017-Nov-26 04:00N 68°53' E 016°30'0 0.0
2017-Nov-26 03:30N 68°53' E 016°30'0 0.0
2017-Nov-26 03:00N 68°53' E 016°30'0 0.0
2017-Nov-26 02:30N 68°53' E 016°30'0 0.0
2017-Nov-26 02:00N 68°53' E 016°30'0 0.0
2017-Nov-26 01:30N 68°53' E 016°30'0 0.0
2017-Nov-26 01:00N 68°53' E 016°30'0 0.0
2017-Nov-26 00:30N 68°53' E 016°30'0 0.0
2017-Nov-26 00:00N 68°53' E 016°30'0 0.0
2017-Nov-25 23:29N 68°53' E 016°30'0 0.0
2017-Nov-25 23:00N 68°53' E 016°30'0 0.0
2017-Nov-25 22:29N 68°53' E 016°30'2 3.7
2017-Nov-25 22:00N 68°51' E 016°30'2 3.6
2017-Nov-25 21:30N 68°53' E 016°30'2 3.7
2017-Nov-25 21:00N 68°51' E 016°30'2 3.6
2017-Nov-25 20:30N 68°53' E 016°30'2 3.6
2017-Nov-25 20:00N 68°51' E 016°29'2 3.6
2017-Nov-25 19:30N 68°53' E 016°30'2 3.5
2017-Nov-25 18:59N 68°51' E 016°29'2 3.7
2017-Nov-25 18:30N 68°53' E 016°30'2 3.8
2017-Nov-25 18:00N 68°51' E 016°30'2 3.6
2017-Nov-25 17:30N 68°53' E 016°30'0 0.1
2017-Nov-25 17:00N 68°53' E 016°30'0 0.0
2017-Nov-25 16:30N 68°53' E 016°30'2 3.6
2017-Nov-25 16:00N 68°51' E 016°29'2 3.6
2017-Nov-25 15:30N 68°53' E 016°30'2 3.5
2017-Nov-25 15:00N 68°51' E 016°29'2 3.7
2017-Nov-25 14:30N 68°53' E 016°30'2 3.6
2017-Nov-25 14:00N 68°51' E 016°30'2 3.5
2017-Nov-25 13:29N 68°53' E 016°30'2 3.7
2017-Nov-25 13:00N 68°51' E 016°29'0 0.0
2017-Nov-25 12:30N 68°51' E 016°29'0 0.0
2017-Nov-25 12:00N 68°51' E 016°29'0 0.0
2017-Nov-25 11:30N 68°51' E 016°29'0 0.0
2017-Nov-25 11:00N 68°51' E 016°29'0 0.8
2017-Nov-25 10:30N 68°51' E 016°30'0 0.8
2017-Nov-25 10:00N 68°51' E 016°29'2 3.7
2017-Nov-25 09:30N 68°53' E 016°30'2 3.7
2017-Nov-25 09:00N 68°51' E 016°30'2 3.6
2017-Nov-25 08:30N 68°53' E 016°30'2 3.6
2017-Nov-25 08:00N 68°51' E 016°29'2 3.7
2017-Nov-25 07:30N 68°53' E 016°30'2 3.5
2017-Nov-25 07:00N 68°51' E 016°29'2 3.7
2017-Nov-25 06:30N 68°53' E 016°30'0 0.0
2017-Nov-25 06:00N 68°53' E 016°30'0 0.0
2017-Nov-25 05:29N 68°53' E 016°30'0 0.0
2017-Nov-25 05:00N 68°53' E 016°30'0 0.0
2017-Nov-25 04:30N 68°53' E 016°30'0 0.0
2017-Nov-25 04:00N 68°53' E 016°30'0 0.0
2017-Nov-25 03:30N 68°53' E 016°30'0 0.0
2017-Nov-25 03:00N 68°53' E 016°30'0 0.0
2017-Nov-25 02:30N 68°53' E 016°30'0 0.0
2017-Nov-25 02:00N 68°53' E 016°30'0 0.0
2017-Nov-25 01:30N 68°53' E 016°30'0 0.0
2017-Nov-25 01:00N 68°53' E 016°30'0 0.0
2017-Nov-25 00:30N 68°53' E 016°30'0 0.0
2017-Nov-24 23:59N 68°53' E 016°30'0 0.0
2017-Nov-24 23:29N 68°53' E 016°30'0 0.0
2017-Nov-24 23:00N 68°53' E 016°30'0 0.0
2017-Nov-24 22:30N 68°53' E 016°30'2 3.7
2017-Nov-24 22:00N 68°51' E 016°29'2 3.6
2017-Nov-24 21:30N 68°53' E 016°30'2 3.6
2017-Nov-24 21:00N 68°51' E 016°29'2 3.7
2017-Nov-24 20:30N 68°53' E 016°30'2 3.6
2017-Nov-24 20:00N 68°51' E 016°29'2 3.6
2017-Nov-24 19:30N 68°53' E 016°30'2 3.7
2017-Nov-24 19:00N 68°51' E 016°29'2 3.6
2017-Nov-24 18:30N 68°53' E 016°30'2 3.7
2017-Nov-24 18:00N 68°51' E 016°30'0 0.0
2017-Nov-24 17:30N 68°51' E 016°29'0 0.0
2017-Nov-24 17:00N 68°51' E 016°29'2 3.7
2017-Nov-24 16:30N 68°53' E 016°30'0 0.8
2017-Nov-24 16:00N 68°53' E 016°30'0 0.9
2017-Nov-24 15:30N 68°52' E 016°30'1 2.0
2017-Nov-24 15:00N 68°51' E 016°30'0 0.2
2017-Nov-24 14:30N 68°51' E 016°29'2 3.1
2017-Nov-24 14:00N 68°53' E 016°30'0 0.4
2017-Nov-24 13:30N 68°52' E 016°30'1 2.7
2017-Nov-24 13:00N 68°51' E 016°29'0 0.0
2017-Nov-24 12:30N 68°51' E 016°29'0 0.0
2017-Nov-24 11:59N 68°51' E 016°29'0 0.0
2017-Nov-24 11:30N 68°51' E 016°29'0 0.0
2017-Nov-24 11:00N 68°51' E 016°29'2 3.6
2017-Nov-24 10:30N 68°53' E 016°30'2 3.3
2017-Nov-24 10:00N 68°51' E 016°30'1 2.2
2017-Nov-24 09:30N 68°52' E 016°30'1 1.0
2017-Nov-24 09:00N 68°53' E 016°30'0 0.1
2017-Nov-24 08:31N 68°53' E 016°30'1 2.5
2017-Nov-24 08:00N 68°52' E 016°30'1 1.2
2017-Nov-24 07:30N 68°51' E 016°29'1 1.7
2017-Nov-24 07:00N 68°52' E 016°30'1 1.9
2017-Nov-24 06:30N 68°53' E 016°30'0 0.0
2017-Nov-24 06:00N 68°53' E 016°30'2 3.7
2017-Nov-24 05:30N 68°51' E 016°29'0 0.0
2017-Nov-24 05:00N 68°51' E 016°29'0 0.0
2017-Nov-24 04:30N 68°51' E 016°29'0 0.0
2017-Nov-24 03:59N 68°51' E 016°29'0 0.0
2017-Nov-24 03:29N 68°51' E 016°29'0 0.0
2017-Nov-24 03:00N 68°51' E 016°29'0 0.0
2017-Nov-24 02:30N 68°51' E 016°29'0 0.0
2017-Nov-24 02:00N 68°51' E 016°29'0 0.0
2017-Nov-24 01:30N 68°51' E 016°29'0 0.0
2017-Nov-24 00:59N 68°51' E 016°29'0 0.0
2017-Nov-24 00:29N 68°51' E 016°29'0 0.0
2017-Nov-24 00:00N 68°51' E 016°29'0 0.0
2017-Nov-23 23:30N 68°51' E 016°29'0 0.0
2017-Nov-23 23:00N 68°51' E 016°29'0 0.0
2017-Nov-23 22:30N 68°51' E 016°29'0 0.0
2017-Nov-23 22:00N 68°51' E 016°29'0 0.0
2017-Nov-23 21:30N 68°51' E 016°29'0 0.0
2017-Nov-23 21:00N 68°51' E 016°29'0 0.0
2017-Nov-23 20:30N 68°51' E 016°29'0 0.0
2017-Nov-23 20:00N 68°51' E 016°29'0 0.0
2017-Nov-23 19:30N 68°51' E 016°29'0 0.0
2017-Nov-23 19:00N 68°51' E 016°29'0 0.0
2017-Nov-23 18:30N 68°51' E 016°29'0 0.0
2017-Nov-23 17:59N 68°51' E 016°29'0 0.0
2017-Nov-23 17:30N 68°51' E 016°29'0 0.0
2017-Nov-23 17:00N 68°51' E 016°29'0 0.0
2017-Nov-23 16:30N 68°51' E 016°29'0 0.0
2017-Nov-23 16:00N 68°51' E 016°29'0 0.0
2017-Nov-23 15:30N 68°51' E 016°29'0 0.0
2017-Nov-23 15:00N 68°51' E 016°29'0 0.0
2017-Nov-23 14:30N 68°51' E 016°29'0 0.0
2017-Nov-23 14:00N 68°51' E 016°29'0 0.6
2017-Nov-23 13:30N 68°51' E 016°30'0 0.6
2017-Nov-23 13:00N 68°51' E 016°29'0 0.0
2017-Nov-23 12:30N 68°51' E 016°29'0 0.0
2017-Nov-23 12:00N 68°51' E 016°29'0 0.0
2017-Nov-23 11:30N 68°51' E 016°29'0 0.8
2017-Nov-23 11:01N 68°51' E 016°31'3 5.9
2017-Nov-23 10:30N 68°48' E 016°34'1 1.5
2017-Nov-23 10:00N 68°48' E 016°33'0 0.0
2017-Nov-23 09:30N 68°48' E 016°33'0 0.0
2017-Nov-23 09:00N 68°48' E 016°33'0 0.0
2017-Nov-23 08:29N 68°48' E 016°33'0 0.0
2017-Nov-23 08:00N 68°48' E 016°33'0 0.0
2017-Nov-23 07:30N 68°48' E 016°33'0 0.0
2017-Nov-23 06:59N 68°48' E 016°33'0 0.0
2017-Nov-23 06:30N 68°48' E 016°33'0 0.0
2017-Nov-23 06:00N 68°48' E 016°33'0 0.0
2017-Nov-23 05:30N 68°48' E 016°33'0 0.0
2017-Nov-23 05:00N 68°48' E 016°33'0 0.0
2017-Nov-23 04:30N 68°48' E 016°33'0 0.0
2017-Nov-23 04:00N 68°48' E 016°33'0 0.0
2017-Nov-23 03:30N 68°48' E 016°33'0 0.0
2017-Nov-23 03:00N 68°48' E 016°33'0 0.0
2017-Nov-23 02:30N 68°48' E 016°33'0 0.0
2017-Nov-23 02:00N 68°48' E 016°33'1 1.6
2017-Nov-23 01:30N 68°49' E 016°33'4 8.6
2017-Nov-23 01:00N 68°51' E 016°43'510.6
2017-Nov-23 00:30N 68°54' E 016°55'510.6
2017-Nov-23 00:00N 68°57' E 017°06'510.5
2017-Nov-22 23:30N 69°01' E 017°17'510.6
2017-Nov-22 23:00N 69°05' E 017°25'510.6
2017-Nov-22 22:30N 69°08' E 017°38'510.7
2017-Nov-22 22:00N 69°10' E 017°52'4 7.7
2017-Nov-22 21:30N 69°13' E 017°59'5 9.9
2017-Nov-22 21:00N 69°18' E 017°58'5 9.7
2017-Nov-22 20:30N 69°22' E 018°06'5 9.9
2017-Nov-22 20:00N 69°27' E 018°07'5 9.5
2017-Nov-22 19:30N 69°30' E 018°16'  

Dump ship's entire track history